createdAt,value
2023-02-22T00:01:23.154Z,100133.63
2023-02-22T00:03:53.521Z,100129.25
2023-02-22T00:06:25.050Z,100132.63
2023-02-22T00:08:53.810Z,100127.34
2023-02-22T00:11:22.615Z,100122.91
2023-02-22T00:13:51.492Z,100127.22
2023-02-22T00:16:21.807Z,100121.03
2023-02-22T00:18:51.123Z,100120.97
2023-02-22T00:21:21.029Z,100116.53
2023-02-22T00:23:50.378Z,100113.78
2023-02-22T00:26:21.049Z,100117.16
2023-02-22T00:28:50.909Z,100107.59
2023-02-22T00:31:20.371Z,100112.69
2023-02-22T00:33:51.139Z,100110.94
2023-02-22T00:36:21.256Z,100097.88
2023-02-22T00:38:49.883Z,100099.59
2023-02-22T00:41:18.802Z,100105.56
2023-02-22T00:43:48.988Z,100107.25
2023-02-22T00:46:17.751Z,100099.28
2023-02-22T00:48:47.285Z,100093.16
2023-02-22T00:51:15.968Z,100088.72
2023-02-22T00:53:45.929Z,100089.44
2023-02-22T00:56:14.460Z,100087.59
2023-02-22T00:58:42.926Z,100093.44
2023-02-22T01:01:11.370Z,100089.88
2023-02-22T01:03:41.403Z,100085.44
2023-02-22T01:06:12.490Z,100076.78
2023-02-22T01:08:46.524Z,100079.25
2023-02-22T01:11:16.660Z,100086.88
2023-02-22T01:13:45.506Z,100084.13
2023-02-22T01:16:14.082Z,100079.78
2023-02-22T01:18:42.645Z,100078.72
2023-02-22T01:21:11.880Z,100071.78
2023-02-22T01:23:42.098Z,100073.41
2023-02-22T01:26:12.576Z,100068.13
2023-02-22T01:28:40.962Z,100065.47
2023-02-22T01:31:09.496Z,100061.91
2023-02-22T01:33:37.940Z,100062.81
2023-02-22T01:36:17.017Z,100057.47
2023-02-22T01:38:45.862Z,100057.41
2023-02-22T01:41:18.621Z,100049.47
2023-02-22T01:43:47.426Z,100050.31
2023-02-22T01:46:23.478Z,100044.16
2023-02-22T01:48:55.745Z,100043.19
2023-02-22T01:51:27.925Z,100040.44
2023-02-22T01:54:10.576Z,100044.69
2023-02-22T01:56:50.505Z,100048.09
2023-02-22T01:59:23.735Z,100045.34
2023-02-22T02:01:52.597Z,100038.38
2023-02-22T02:04:25.561Z,100041.88
2023-02-22T02:07:01.171Z,100035.78
2023-02-22T02:09:37.064Z,100034.03
2023-02-22T02:12:11.045Z,100029.59
2023-02-22T02:14:40.460Z,100027.75
2023-02-22T02:17:10.902Z,100031.13
2023-02-22T02:19:52.013Z,100044.09
2023-02-22T02:22:30.905Z,100024.97
2023-02-22T02:25:33.772Z,100017.94
2023-02-22T02:28:56.308Z,100016.97
2023-02-22T02:32:04.172Z,100017.81
2023-02-22T02:34:36.710Z,100013.44
2023-02-22T02:37:13.162Z,100015.00
2023-02-22T02:39:50.963Z,100014.09
2023-02-22T02:42:24.620Z,100003.66
2023-02-22T02:44:57.516Z,100007.91
2023-02-22T02:47:31.136Z,100005.13
2023-02-22T02:50:04.360Z,100008.56
2023-02-22T02:52:35.302Z,100004.19
2023-02-22T02:55:07.962Z,100011.06
2023-02-22T02:57:36.376Z,99997.97
2023-02-22T03:00:10.942Z,100001.44
2023-02-22T03:02:55.899Z,99995.28
2023-02-22T03:05:44.868Z,99987.38
2023-02-22T03:08:19.819Z,99984.63
2023-02-22T03:11:01.740Z,99979.38
2023-02-22T03:13:38.098Z,99977.53
2023-02-22T03:16:16.550Z,99974.78
2023-02-22T03:18:56.918Z,99971.22
2023-02-22T03:21:35.724Z,99974.56
2023-02-22T03:24:15.986Z,99973.53
2023-02-22T03:26:52.516Z,99969.91
2023-02-22T03:29:24.969Z,99969.72
2023-02-22T03:32:03.651Z,99966.81
2023-02-22T03:34:43.801Z,99963.94
2023-02-22T03:37:18.056Z,99960.22
2023-02-22T03:39:50.553Z,99966.94
2023-02-22T03:42:23.454Z,99968.53
2023-02-22T03:45:02.752Z,99964.06
2023-02-22T03:47:39.959Z,99964.81
2023-02-22T03:50:15.263Z,99966.28
2023-02-22T03:52:47.390Z,99971.31
2023-02-22T03:55:23.733Z,99969.38
2023-02-22T03:57:56.106Z,99966.72
2023-02-22T04:00:26.482Z,99974.44
2023-02-22T04:02:54.919Z,99980.34
2023-02-22T04:05:25.983Z,99980.25
2023-02-22T04:07:55.511Z,99975.88
2023-02-22T04:10:24.761Z,99983.59
2023-02-22T04:12:53.257Z,99974.84
2023-02-22T04:15:24.430Z,99985.94
2023-02-22T04:17:57.025Z,99983.34
2023-02-22T04:20:27.019Z,99981.63
2023-02-22T04:23:02.123Z,99973.81
2023-02-22T04:25:38.716Z,99979.78
2023-02-22T04:28:13.368Z,99972.75
2023-02-22T04:31:03.617Z,99972.75
2023-02-22T04:33:40.569Z,99984.00
2023-02-22T04:36:25.615Z,99988.44
2023-02-22T04:38:55.108Z,99979.78
2023-02-22T04:41:25.511Z,99971.28
2023-02-22T04:43:54.391Z,99966.19
2023-02-22T04:46:31.831Z,99966.34
2023-02-22T04:49:01.860Z,99962.13
2023-02-22T04:51:35.854Z,99956.13
2023-02-22T04:54:08.185Z,99965.69
2023-02-22T04:56:38.914Z,99958.72
2023-02-22T04:59:14.478Z,99956.13
2023-02-22T05:01:46.281Z,99949.25
2023-02-22T05:04:14.919Z,99949.16
2023-02-22T05:06:50.272Z,99944.78
2023-02-22T05:09:26.451Z,99940.44
2023-02-22T05:11:57.394Z,99942.16
2023-02-22T05:14:26.849Z,99936.06
2023-02-22T05:16:56.174Z,99930.91
2023-02-22T05:19:39.279Z,99936.06
2023-02-22T05:22:09.192Z,99926.50
2023-02-22T05:24:38.503Z,99923.03
2023-02-22T05:27:08.289Z,99925.53
2023-02-22T05:29:38.720Z,99917.84
2023-02-22T05:32:09.864Z,99920.38
2023-02-22T05:34:38.639Z,99925.53
2023-02-22T05:37:08.896Z,99922.00
2023-02-22T05:39:37.345Z,99912.44
2023-02-22T05:42:07.235Z,99915.03
2023-02-22T05:44:35.773Z,99908.88
2023-02-22T05:47:04.605Z,99914.91
2023-02-22T05:49:33.124Z,99913.03
2023-02-22T05:52:01.662Z,99906.84
2023-02-22T05:54:31.744Z,99902.47
2023-02-22T05:57:00.230Z,99898.91
2023-02-22T05:59:44.675Z,99902.31
2023-02-22T06:02:20.993Z,99906.59
2023-02-22T06:04:50.836Z,99897.88
2023-02-22T06:07:19.519Z,99900.47
2023-02-22T06:09:49.292Z,99904.75
2023-02-22T06:12:17.644Z,99903.03
2023-02-22T06:14:46.573Z,99895.19
2023-02-22T06:17:16.320Z,99896.06
2023-02-22T06:19:44.768Z,99903.78
2023-02-22T06:22:18.051Z,99898.59
2023-02-22T06:24:55.574Z,99895.94
2023-02-22T06:27:33.208Z,99901.19
2023-02-22T06:30:04.045Z,99884.69
2023-02-22T06:32:33.244Z,99897.63
2023-02-22T06:35:01.885Z,99901.06
2023-02-22T06:37:30.384Z,99895.88
2023-02-22T06:40:04.961Z,99901.84
2023-02-22T06:42:33.737Z,99899.34
2023-02-22T06:45:02.347Z,99896.75
2023-02-22T06:47:30.952Z,99893.28
2023-02-22T06:50:00.938Z,99895.03
2023-02-22T06:52:29.317Z,99896.81
2023-02-22T06:54:57.709Z,99893.44
2023-02-22T06:57:27.497Z,99891.81
2023-02-22T06:59:56.101Z,99890.16
2023-02-22T07:02:24.587Z,99886.78
2023-02-22T07:04:53.241Z,99894.69
2023-02-22T07:07:28.027Z,99889.66
2023-02-22T07:09:56.533Z,99895.81
2023-02-22T07:12:24.952Z,99895.94
2023-02-22T07:14:57.264Z,99886.63
2023-02-22T07:17:26.084Z,99886.78
2023-02-22T07:19:54.496Z,99886.13
2023-02-22T07:22:23.400Z,99882.94
2023-02-22T07:24:52.142Z,99887.38
2023-02-22T07:27:20.575Z,99882.47
2023-02-22T07:29:49.832Z,99882.69
2023-02-22T07:32:19.916Z,99883.00
2023-02-22T07:34:51.398Z,99881.56
2023-02-22T07:37:21.232Z,99880.16
2023-02-22T07:39:49.583Z,99885.66
2023-02-22T07:42:18.182Z,99885.09
2023-02-22T07:44:47.690Z,99881.09
2023-02-22T07:47:18.061Z,99877.97
2023-02-22T07:49:48.250Z,99876.59
2023-02-22T07:52:18.241Z,99871.72
2023-02-22T07:54:52.778Z,99878.13
2023-02-22T07:57:21.675Z,99868.09
2023-02-22T07:59:53.780Z,99868.41
2023-02-22T08:02:23.451Z,99864.44
2023-02-22T08:04:57.989Z,99857.00
2023-02-22T08:07:34.655Z,99865.94
2023-02-22T08:10:08.619Z,99855.13
2023-02-22T08:12:40.913Z,99851.22
2023-02-22T08:15:21.636Z,99849.81
2023-02-22T08:17:59.419Z,99851.16
2023-02-22T08:20:32.127Z,99848.09
2023-02-22T08:23:08.135Z,99848.47
2023-02-22T08:25:38.038Z,99847.19
2023-02-22T08:28:16.105Z,99839.72
2023-02-22T08:30:48.894Z,99846.19
2023-02-22T08:33:25.414Z,99838.78
2023-02-22T08:36:04.550Z,99835.69
2023-02-22T08:38:38.777Z,99834.34
2023-02-22T08:41:15.793Z,99826.13
2023-02-22T08:43:55.423Z,99830.00
2023-02-22T08:46:26.342Z,99829.50
2023-02-22T08:49:00.218Z,99825.53
2023-02-22T08:51:31.233Z,99823.28
2023-02-22T08:54:01.487Z,99821.03
2023-02-22T08:56:34.186Z,99821.41
2023-02-22T08:59:06.198Z,99819.97
2023-02-22T09:01:46.240Z,99822.88
2023-02-22T09:04:16.116Z,99823.19
2023-02-22T09:06:52.713Z,99822.63
2023-02-22T09:09:22.831Z,99829.00
2023-02-22T09:12:07.532Z,99812.81
2023-02-22T09:14:43.371Z,99812.19
2023-02-22T09:17:15.295Z,99818.59
2023-02-22T09:19:51.035Z,99818.91
2023-02-22T09:22:24.739Z,99808.78
2023-02-22T09:25:15.898Z,99808.25
2023-02-22T09:27:58.233Z,99805.94
2023-02-22T09:30:38.143Z,99801.91
2023-02-22T09:33:14.818Z,99806.53
2023-02-22T09:35:53.142Z,99799.81
2023-02-22T09:38:31.692Z,99800.09
2023-02-22T09:41:16.688Z,99800.38
2023-02-22T09:44:03.976Z,99794.63
2023-02-22T09:46:46.161Z,99788.75
2023-02-22T09:49:34.080Z,99796.84
2023-02-22T09:52:16.316Z,99797.03
2023-02-22T09:54:56.308Z,99811.19
2023-02-22T09:57:42.904Z,99801.78
2023-02-22T10:00:18.616Z,99799.38
2023-02-22T10:02:58.819Z,99796.06
2023-02-22T10:05:35.175Z,99797.09
2023-02-22T10:08:09.557Z,99799.03
2023-02-22T10:10:47.156Z,99798.28
2023-02-22T10:13:28.974Z,99801.13
2023-02-22T10:16:06.553Z,99796.91
2023-02-22T10:19:01.077Z,99797.06
2023-02-22T10:21:47.834Z,99791.09
2023-02-22T10:24:32.686Z,99791.25
2023-02-22T10:27:05.387Z,99787.91
2023-02-22T10:29:41.272Z,99788.09
2023-02-22T10:32:23.476Z,99778.63
2023-02-22T10:35:02.397Z,99776.19
2023-02-22T10:38:14.995Z,99779.88
2023-02-22T10:41:19.882Z,99777.38
2023-02-22T10:47:33.428Z,99769.00
2023-02-22T10:50:21.903Z,99769.16
2023-02-22T10:52:55.157Z,99761.44
2023-02-22T10:55:23.991Z,99763.31
2023-02-22T10:58:04.543Z,99753.84
2023-02-22T11:00:37.743Z,99743.50
2023-02-22T11:03:17.795Z,99741.91
2023-02-22T11:05:46.433Z,99742.97
2023-02-22T11:08:17.291Z,99738.72
2023-02-22T11:10:45.825Z,99751.09
2023-02-22T11:13:32.672Z,99745.16
2023-02-22T11:16:20.670Z,99741.78
2023-02-22T11:18:50.025Z,99734.00
2023-02-22T11:21:27.421Z,99741.16
2023-02-22T11:24:03.813Z,99731.66
2023-02-22T11:26:39.376Z,99729.22
2023-02-22T11:29:15.587Z,99727.59
2023-02-22T11:31:50.674Z,99719.84
2023-02-22T11:34:38.285Z,99726.13
2023-02-22T11:37:18.887Z,99730.63
2023-02-22T11:39:47.554Z,99730.72
2023-02-22T11:42:25.665Z,99723.84
2023-02-22T11:45:12.433Z,99720.41
2023-02-22T11:47:57.362Z,99720.50
2023-02-22T11:50:30.535Z,99710.09
2023-02-22T11:53:22.543Z,99711.00
2023-02-22T11:56:06.362Z,99713.75
2023-02-22T11:58:45.677Z,99713.84
2023-02-22T12:01:23.658Z,99703.44
2023-02-22T12:04:38.326Z,99700.88
2023-02-22T12:07:24.053Z,99695.69
2023-02-22T12:09:59.612Z,99703.66
2023-02-22T12:12:40.739Z,99694.09
2023-02-22T12:15:32.957Z,99687.19
2023-02-22T12:18:11.473Z,99692.50
2023-02-22T12:20:56.672Z,99687.31
2023-02-22T12:23:38.569Z,99695.28
2023-02-22T12:26:23.810Z,99686.59
2023-02-22T12:29:07.212Z,99690.13
2023-02-22T12:31:40.895Z,99689.34
2023-02-22T12:34:22.124Z,99686.72
2023-02-22T12:37:02.646Z,99687.63
2023-02-22T12:39:52.811Z,99686.81
2023-02-22T12:42:50.664Z,99684.19
2023-02-22T12:45:37.200Z,99685.09
2023-02-22T12:48:24.723Z,99678.09
2023-02-22T12:50:59.092Z,99684.22
2023-02-22T12:53:35.685Z,99679.88
2023-02-22T12:56:24.048Z,99687.81
2023-02-22T12:58:59.850Z,99696.56
2023-02-22T13:01:34.058Z,99686.94
2023-02-22T13:04:19.493Z,99679.94
2023-02-22T13:07:11.562Z,99687.88
2023-02-22T13:09:59.494Z,99681.75
2023-02-22T13:12:44.176Z,99683.56
2023-02-22T13:15:25.192Z,99673.03
2023-02-22T13:18:04.390Z,99680.97
2023-02-22T13:20:39.275Z,99679.25
2023-02-22T13:23:19.999Z,99676.63
2023-02-22T13:25:58.074Z,99671.38
2023-02-22T13:28:34.291Z,99672.28
2023-02-22T13:31:20.911Z,99669.66
2023-02-22T13:34:16.424Z,99671.44
2023-02-22T13:37:02.310Z,99662.63
2023-02-22T13:39:45.982Z,99677.56
2023-02-22T13:42:49.108Z,99672.28
2023-02-22T13:45:52.961Z,99672.31
2023-02-22T13:48:57.138Z,99663.50
2023-02-22T13:51:42.635Z,99667.88
2023-02-22T13:54:19.606Z,99669.66
2023-02-22T13:56:50.838Z,99678.44
2023-02-22T13:59:40.076Z,99668.78
2023-02-22T14:02:28.880Z,99670.53
2023-02-22T14:04:57.427Z,99669.69
2023-02-22T14:07:56.187Z,99670.59
2023-02-22T14:10:47.817Z,99666.19
2023-02-22T14:13:18.170Z,99667.94
2023-02-22T14:16:20.888Z,99673.22
2023-02-22T14:18:51.867Z,99667.09
2023-02-22T14:21:22.050Z,99672.38
2023-02-22T14:23:52.109Z,99670.59
2023-02-22T14:26:27.802Z,99675.00
2023-02-22T14:28:59.011Z,99674.13
2023-02-22T14:31:36.525Z,99666.22
2023-02-22T14:34:10.049Z,99663.59
2023-02-22T14:36:52.524Z,99669.75
2023-02-22T14:39:26.945Z,99660.94
2023-02-22T14:42:01.861Z,99664.44
2023-02-22T14:44:36.996Z,99663.59
2023-02-22T14:47:11.286Z,99668.00
2023-02-22T14:49:43.046Z,99666.22
2023-02-22T14:52:20.766Z,99667.97
2023-02-22T14:55:05.353Z,99671.50
2023-02-22T14:57:44.721Z,99665.34
2023-02-22T15:00:22.685Z,99673.25
2023-02-22T15:02:57.258Z,99667.09
2023-02-22T15:05:30.168Z,99669.72
2023-02-22T15:08:01.312Z,99667.97
2023-02-22T15:10:42.789Z,99669.72
2023-02-22T15:13:20.617Z,99663.59
2023-02-22T15:15:55.827Z,99669.72
2023-02-22T15:18:30.354Z,99664.47
2023-02-22T15:21:00.135Z,99665.34
2023-02-22T15:23:33.248Z,99667.97
2023-02-22T15:26:03.116Z,99668.88
2023-02-22T15:28:32.202Z,99673.25
2023-02-22T15:31:27.987Z,99671.50
2023-02-22T15:33:58.772Z,99673.25
2023-02-22T15:36:30.984Z,99674.13
2023-02-22T15:38:59.511Z,99667.97
2023-02-22T15:41:31.726Z,99675.00
2023-02-22T15:44:08.012Z,99677.63
2023-02-22T15:46:42.822Z,99681.16
2023-02-22T15:49:25.892Z,99677.59
2023-02-22T15:52:07.360Z,99680.22
2023-02-22T15:54:45.475Z,99685.50
2023-02-22T15:57:19.069Z,99681.09
2023-02-22T15:59:53.204Z,99680.19
2023-02-22T16:02:31.422Z,99682.81
2023-02-22T16:05:06.751Z,99688.03
2023-02-22T16:07:41.984Z,99688.03
2023-02-22T16:10:22.321Z,99690.63
2023-02-22T16:12:52.543Z,99692.34
2023-02-22T16:15:21.026Z,99690.56
2023-02-22T16:18:01.929Z,99687.91
2023-02-22T16:20:35.422Z,99692.25
2023-02-22T16:23:24.218Z,99694.84
2023-02-22T16:26:19.809Z,99696.56
2023-02-22T16:28:51.954Z,99696.53
2023-02-22T16:31:22.297Z,99703.50
2023-02-22T16:33:51.238Z,99707.00
2023-02-22T16:36:24.456Z,99709.59
2023-02-22T16:38:53.737Z,99707.78
2023-02-22T16:41:22.191Z,99704.25
2023-02-22T16:43:51.821Z,99713.88
2023-02-22T16:46:20.816Z,99708.59
2023-02-22T16:48:49.531Z,99707.66
2023-02-22T16:51:24.302Z,99712.91
2023-02-22T16:53:55.083Z,99720.75
2023-02-22T16:56:30.795Z,99714.56
2023-02-22T16:59:10.012Z,99715.38
2023-02-22T17:01:38.618Z,99717.97
2023-02-22T17:04:15.460Z,99715.28
2023-02-22T17:06:45.622Z,99724.88
2023-02-22T17:09:15.326Z,99724.75
2023-02-22T17:11:44.845Z,99724.66
2023-02-22T17:14:18.735Z,99717.66
2023-02-22T17:16:47.847Z,99728.94
2023-02-22T17:19:17.845Z,99727.16
2023-02-22T17:21:48.196Z,99730.59
2023-02-22T17:24:20.058Z,99736.59
2023-02-22T17:26:48.497Z,99730.41
2023-02-22T17:29:17.862Z,99733.78
2023-02-22T17:31:48.895Z,99739.81
2023-02-22T17:34:17.892Z,99735.34
2023-02-22T17:36:47.711Z,99743.19
2023-02-22T17:39:16.362Z,99747.47
2023-02-22T17:41:44.683Z,99746.53
2023-02-22T17:44:13.261Z,99741.16
2023-02-22T17:46:41.884Z,99757.72
2023-02-22T17:49:13.872Z,99751.47
2023-02-22T17:51:42.574Z,99750.53
2023-02-22T17:54:12.257Z,99760.09
2023-02-22T17:56:42.454Z,99759.16
2023-02-22T17:59:11.037Z,99764.34
2023-02-22T18:01:39.799Z,99767.75
2023-02-22T18:04:08.323Z,99766.84
2023-02-22T18:06:38.052Z,99763.28
2023-02-22T18:09:10.370Z,99764.91
2023-02-22T18:11:41.253Z,99771.00
2023-02-22T18:14:10.839Z,99768.31
2023-02-22T18:16:39.456Z,99768.25
2023-02-22T18:19:08.158Z,99764.69
2023-02-22T18:21:38.824Z,99763.75
2023-02-22T18:24:08.182Z,99768.03
2023-02-22T18:26:39.039Z,99775.84
2023-02-22T18:29:12.270Z,99774.97
2023-02-22T18:31:40.799Z,99777.56
2023-02-22T18:34:12.931Z,99775.84
2023-02-22T18:36:41.401Z,99778.44
2023-02-22T18:39:18.979Z,99774.91
2023-02-22T18:41:48.748Z,99777.56
2023-02-22T18:44:19.279Z,99780.19
2023-02-22T18:46:47.687Z,99781.06
2023-02-22T18:49:17.262Z,99779.31
2023-02-22T18:51:46.064Z,99776.69
2023-02-22T18:54:14.487Z,99776.69
2023-02-22T18:56:42.891Z,99780.19
2023-02-22T18:59:13.194Z,99781.06
2023-02-22T19:01:48.819Z,99780.13
2023-02-22T19:04:18.271Z,99788.00
2023-02-22T19:06:48.448Z,99787.03
2023-02-22T19:09:17.191Z,99792.22
2023-02-22T19:11:46.710Z,99782.53
2023-02-22T19:14:16.491Z,99786.84
2023-02-22T19:16:47.052Z,99784.13
2023-02-22T19:19:20.752Z,99790.16
2023-02-22T19:21:49.598Z,99795.31
2023-02-22T19:24:20.528Z,99801.38
2023-02-22T19:26:50.776Z,99797.78
2023-02-22T19:29:22.182Z,99796.81
2023-02-22T19:31:53.556Z,99795.00
2023-02-22T19:34:24.584Z,99801.06
2023-02-22T19:36:53.460Z,99795.75
2023-02-22T19:41:55.856Z,99803.50
2023-02-22T19:44:25.412Z,99808.69
2023-02-22T19:46:56.276Z,99805.19
2023-02-22T19:49:27.699Z,99806.88
2023-02-22T19:51:58.075Z,99812.03
2023-02-22T19:54:26.685Z,99811.97
2023-02-22T19:56:57.026Z,99810.19
2023-02-22T19:59:25.468Z,99804.94
2023-02-22T20:01:56.329Z,99811.81
2023-02-22T20:04:26.422Z,99815.25
2023-02-22T20:06:57.532Z,99815.16
2023-02-22T20:09:32.020Z,99809.00
2023-02-22T20:12:00.510Z,99808.97
2023-02-22T20:14:30.502Z,99802.81
2023-02-22T20:17:00.931Z,99814.97
2023-02-22T20:19:29.867Z,99805.31
2023-02-22T20:22:00.243Z,99807.00
2023-02-22T20:24:28.751Z,99815.69
2023-02-22T20:26:58.241Z,99819.13
2023-02-22T20:29:30.410Z,99821.66
2023-02-22T20:32:01.779Z,99820.75
2023-02-22T20:34:32.571Z,99823.28
2023-02-22T20:37:02.221Z,99820.59
2023-02-22T20:39:30.858Z,99826.69
2023-02-22T20:42:00.862Z,99837.97
2023-02-22T20:44:29.451Z,99828.31
2023-02-22T20:46:57.833Z,99828.25
2023-02-22T20:49:27.744Z,99830.81
2023-02-22T20:51:56.326Z,99829.81
2023-02-22T20:54:24.965Z,99827.19
2023-02-22T20:56:53.455Z,99834.03
2023-02-22T20:59:22.388Z,99825.31
2023-02-22T21:01:53.047Z,99822.59
2023-02-22T21:04:23.201Z,99828.69
2023-02-22T21:06:53.184Z,99829.56
2023-02-22T21:09:23.872Z,99826.06
2023-02-22T21:11:52.364Z,99832.16
2023-02-22T21:14:22.530Z,99823.41
2023-02-22T21:16:52.908Z,99824.31
2023-02-22T21:19:26.412Z,99818.19
2023-02-22T21:21:58.107Z,99838.22
2023-02-22T21:24:28.415Z,99832.13
2023-02-22T21:26:58.516Z,99832.19
2023-02-22T21:29:27.636Z,99828.69
2023-02-22T21:31:56.446Z,99836.59
2023-02-22T21:34:25.802Z,99830.53
2023-02-22T21:36:54.577Z,99831.38
2023-02-22T21:39:28.599Z,99834.84
2023-02-22T21:42:00.469Z,99829.63
2023-02-22T21:44:29.822Z,99833.16
2023-02-22T21:46:58.310Z,99829.69
2023-02-22T21:49:26.724Z,99824.44
2023-02-22T21:51:55.145Z,99821.88
2023-02-22T21:54:24.929Z,99826.25
2023-02-22T21:56:54.417Z,99823.63
2023-02-22T21:59:23.929Z,99820.97
2023-02-22T22:01:55.768Z,99822.72
2023-02-22T22:04:27.521Z,99823.56
2023-02-22T22:06:58.628Z,99828.75
2023-02-22T22:09:32.889Z,99833.06
2023-02-22T22:12:04.996Z,99827.75
2023-02-22T22:14:34.608Z,99825.00
2023-02-22T22:17:05.808Z,99822.28
2023-02-22T22:19:39.042Z,99826.63
2023-02-22T22:22:07.852Z,99831.81
2023-02-22T22:24:37.966Z,99826.63
2023-02-22T22:27:09.730Z,99830.94
2023-02-22T22:29:38.891Z,99825.69
2023-02-22T22:32:07.604Z,99827.38
2023-02-22T22:34:37.806Z,99825.63
2023-02-22T22:37:06.467Z,99834.31
2023-02-22T22:39:34.888Z,99824.72
2023-02-22T22:42:04.755Z,99824.72
2023-02-22T22:44:41.781Z,99822.97
2023-02-22T22:47:12.228Z,99818.63
2023-02-22T22:49:42.566Z,99824.72
2023-02-22T22:52:13.919Z,99812.56
2023-02-22T22:54:43.980Z,99827.31
2023-02-22T22:57:14.508Z,99822.09
2023-02-22T22:59:43.130Z,99823.84
2023-02-22T23:02:11.851Z,99821.22
2023-02-22T23:04:40.357Z,99822.97
2023-02-22T23:07:08.766Z,99824.72
2023-02-22T23:09:38.946Z,99821.22
2023-02-22T23:12:09.604Z,99820.41
2023-02-22T23:14:44.023Z,99826.50
2023-02-22T23:17:15.825Z,99831.75
2023-02-22T23:19:46.059Z,99824.81
2023-02-22T23:22:15.161Z,99818.69
2023-02-22T23:24:44.974Z,99824.81
2023-02-22T23:27:13.788Z,99815.25
2023-02-22T23:29:46.491Z,99821.31
2023-02-22T23:32:15.102Z,99820.44
2023-02-22T23:34:43.939Z,99822.16
2023-02-22T23:37:14.012Z,99826.50
2023-02-22T23:39:42.692Z,99829.06
2023-02-22T23:42:11.091Z,99829.94
2023-02-22T23:44:40.219Z,99829.94
2023-02-22T23:47:10.057Z,99832.56
2023-02-22T23:49:38.993Z,99829.88
2023-02-22T23:52:09.374Z,99835.13
2023-02-22T23:54:43.834Z,99834.19
2023-02-22T23:57:12.276Z,99834.16
2023-02-22T23:59:40.793Z,99835.03
